sensor_id;sensor_type;location;lat;lon;timestamp;P1;durP1;ratioP1;P2;durP2;ratioP2
48006;SDS011;33771;48.180;11.400;2024-01-10T00:01:55;52.63;;;24.60;;
48006;SDS011;33771;48.180;11.400;2024-01-10T00:04:21;49.97;;;24.70;;
48006;SDS011;33771;48.180;11.400;2024-01-10T00:06:46;48.20;;;23.20;;
48006;SDS011;33771;48.180;11.400;2024-01-10T00:09:12;46.83;;;23.03;;
48006;SDS011;33771;48.180;11.400;2024-01-10T00:11:37;53.33;;;23.90;;
48006;SDS011;33771;48.180;11.400;2024-01-10T00:14:03;58.27;;;23.40;;
48006;SDS011;33771;48.180;11.400;2024-01-10T00:16:29;52.37;;;24.03;;
48006;SDS011;33771;48.180;11.400;2024-01-10T00:18:54;54.43;;;23.27;;
48006;SDS011;33771;48.180;11.400;2024-01-10T00:21:20;52.40;;;24.23;;
48006;SDS011;33771;48.180;11.400;2024-01-10T00:23:45;46.07;;;22.27;;
48006;SDS011;33771;48.180;11.400;2024-01-10T00:26:11;48.47;;;22.43;;
48006;SDS011;33771;48.180;11.400;2024-01-10T00:28:36;50.97;;;24.37;;
48006;SDS011;33771;48.180;11.400;2024-01-10T00:31:02;44.10;;;22.43;;
48006;SDS011;33771;48.180;11.400;2024-01-10T00:33:27;49.87;;;22.17;;
48006;SDS011;33771;48.180;11.400;2024-01-10T00:35:54;50.30;;;22.30;;
48006;SDS011;33771;48.180;11.400;2024-01-10T00:38:19;49.43;;;23.57;;
48006;SDS011;33771;48.180;11.400;2024-01-10T00:40:45;46.10;;;22.80;;
48006;SDS011;33771;48.180;11.400;2024-01-10T00:43:10;48.50;;;23.50;;
48006;SDS011;33771;48.180;11.400;2024-01-10T00:45:36;45.07;;;22.73;;
48006;SDS011;33771;48.180;11.400;2024-01-10T00:48:01;51.40;;;24.07;;
48006;SDS011;33771;48.180;11.400;2024-01-10T00:50:27;52.43;;;24.80;;
48006;SDS011;33771;48.180;11.400;2024-01-10T00:52:53;49.43;;;23.30;;
48006;SDS011;33771;48.180;11.400;2024-01-10T00:55:19;52.70;;;25.43;;
48006;SDS011;33771;48.180;11.400;2024-01-10T00:57:44;58.43;;;24.47;;
48006;SDS011;33771;48.180;11.400;2024-01-10T01:00:10;57.03;;;25.27;;
48006;SDS011;33771;48.180;11.400;2024-01-10T01:02:36;53.27;;;23.23;;
48006;SDS011;33771;48.180;11.400;2024-01-10T01:05:04;50.53;;;24.83;;
48006;SDS011;33771;48.180;11.400;2024-01-10T01:07:30;49.23;;;24.43;;
48006;SDS011;33771;48.180;11.400;2024-01-10T01:09:55;51.83;;;23.77;;
48006;SDS011;33771;48.180;11.400;2024-01-10T01:12:21;53.57;;;24.80;;
48006;SDS011;33771;48.180;11.400;2024-01-10T01:14:46;50.10;;;23.80;;
48006;SDS011;33771;48.180;11.400;2024-01-10T01:17:12;46.53;;;22.93;;
48006;SDS011;33771;48.180;11.400;2024-01-10T01:19:37;50.03;;;24.40;;
48006;SDS011;33771;48.180;11.400;2024-01-10T01:22:03;47.87;;;22.20;;
48006;SDS011;33771;48.180;11.400;2024-01-10T01:24:28;49.63;;;24.63;;
48006;SDS011;33771;48.180;11.400;2024-01-10T01:26:54;48.20;;;24.17;;
48006;SDS011;33771;48.180;11.400;2024-01-10T01:29:20;53.70;;;25.10;;
48006;SDS011;33771;48.180;11.400;2024-01-10T01:31:46;51.43;;;23.17;;
48006;SDS011;33771;48.180;11.400;2024-01-10T01:34:12;50.67;;;24.13;;
48006;SDS011;33771;48.180;11.400;2024-01-10T01:36:39;47.83;;;23.10;;
48006;SDS011;33771;48.180;11.400;2024-01-10T01:39:04;52.37;;;23.47;;
48006;SDS011;33771;48.180;11.400;2024-01-10T01:41:30;47.80;;;24.20;;
48006;SDS011;33771;48.180;11.400;2024-01-10T01:43:56;53.03;;;23.90;;
48006;SDS011;33771;48.180;11.400;2024-01-10T01:46:22;51.00;;;24.53;;
48006;SDS011;33771;48.180;11.400;2024-01-10T01:48:48;53.70;;;23.43;;
48006;SDS011;33771;48.180;11.400;2024-01-10T01:51:14;47.77;;;23.10;;
48006;SDS011;33771;48.180;11.400;2024-01-10T01:53:42;46.53;;;24.70;;
48006;SDS011;33771;48.180;11.400;2024-01-10T01:56:09;48.40;;;23.37;;
48006;SDS011;33771;48.180;11.400;2024-01-10T01:58:37;52.30;;;24.47;;
48006;SDS011;33771;48.180;11.400;2024-01-10T02:01:04;50.50;;;24.90;;
48006;SDS011;33771;48.180;11.400;2024-01-10T02:03:33;57.43;;;25.30;;
48006;SDS011;33771;48.180;11.400;2024-01-10T02:05:59;55.27;;;25.97;;
48006;SDS011;33771;48.180;11.400;2024-01-10T02:08:28;51.23;;;25.17;;
48006;SDS011;33771;48.180;11.400;2024-01-10T02:10:59;57.63;;;25.47;;
48006;SDS011;33771;48.180;11.400;2024-01-10T02:13:25;60.33;;;26.13;;
48006;SDS011;33771;48.180;11.400;2024-01-10T02:15:51;55.43;;;25.40;;
48006;SDS011;33771;48.180;11.400;2024-01-10T02:18:17;62.67;;;27.73;;
48006;SDS011;33771;48.180;11.400;2024-01-10T02:20:43;59.47;;;26.87;;
48006;SDS011;33771;48.180;11.400;2024-01-10T02:23:09;53.00;;;24.30;;
48006;SDS011;33771;48.180;11.400;2024-01-10T02:25:35;50.20;;;24.37;;
48006;SDS011;33771;48.180;11.400;2024-01-10T02:28:01;59.80;;;27.23;;
48006;SDS011;33771;48.180;11.400;2024-01-10T02:30:26;56.10;;;25.20;;
48006;SDS011;33771;48.180;11.400;2024-01-10T02:32:52;59.67;;;26.17;;
48006;SDS011;33771;48.180;11.400;2024-01-10T02:35:18;56.97;;;25.90;;
48006;SDS011;33771;48.180;11.400;2024-01-10T02:37:43;54.87;;;26.03;;
48006;SDS011;33771;48.180;11.400;2024-01-10T02:40:10;55.97;;;26.80;;
48006;SDS011;33771;48.180;11.400;2024-01-10T02:42:35;56.00;;;25.40;;
48006;SDS011;33771;48.180;11.400;2024-01-10T02:45:01;59.47;;;25.27;;
48006;SDS011;33771;48.180;11.400;2024-01-10T02:47:27;57.33;;;26.57;;
48006;SDS011;33771;48.180;11.400;2024-01-10T02:49:54;59.87;;;26.80;;
48006;SDS011;33771;48.180;11.400;2024-01-10T02:52:20;59.20;;;27.00;;
48006;SDS011;33771;48.180;11.400;2024-01-10T02:54:45;57.90;;;25.63;;
48006;SDS011;33771;48.180;11.400;2024-01-10T02:57:11;58.77;;;27.10;;
48006;SDS011;33771;48.180;11.400;2024-01-10T02:59:38;60.73;;;27.23;;
48006;SDS011;33771;48.180;11.400;2024-01-10T03:02:03;62.40;;;27.07;;
48006;SDS011;33771;48.180;11.400;2024-01-10T03:04:29;59.43;;;27.20;;
48006;SDS011;33771;48.180;11.400;2024-01-10T03:06:54;61.93;;;26.17;;
48006;SDS011;33771;48.180;11.400;2024-01-10T03:09:22;65.03;;;26.30;;
48006;SDS011;33771;48.180;11.400;2024-01-10T03:11:48;69.77;;;28.50;;
48006;SDS011;33771;48.180;11.400;2024-01-10T03:14:13;69.20;;;28.47;;
48006;SDS011;33771;48.180;11.400;2024-01-10T03:16:39;63.43;;;27.20;;
48006;SDS011;33771;48.180;11.400;2024-01-10T03:19:05;66.77;;;27.47;;
48006;SDS011;33771;48.180;11.400;2024-01-10T03:21:30;60.47;;;27.33;;
48006;SDS011;33771;48.180;11.400;2024-01-10T03:23:56;62.37;;;28.30;;
48006;SDS011;33771;48.180;11.400;2024-01-10T03:26:23;58.30;;;25.73;;
48006;SDS011;33771;48.180;11.400;2024-01-10T03:28:50;64.80;;;27.83;;
48006;SDS011;33771;48.180;11.400;2024-01-10T03:31:16;66.10;;;27.37;;
48006;SDS011;33771;48.180;11.400;2024-01-10T03:33:41;60.43;;;26.33;;
48006;SDS011;33771;48.180;11.400;2024-01-10T03:36:08;62.87;;;26.33;;
48006;SDS011;33771;48.180;11.400;2024-01-10T03:38:36;65.50;;;26.57;;
48006;SDS011;33771;48.180;11.400;2024-01-10T03:41:02;62.70;;;27.57;;
48006;SDS011;33771;48.180;11.400;2024-01-10T03:43:27;65.77;;;28.00;;
48006;SDS011;33771;48.180;11.400;2024-01-10T03:45:53;69.13;;;28.30;;
48006;SDS011;33771;48.180;11.400;2024-01-10T03:48:18;60.60;;;26.10;;
48006;SDS011;33771;48.180;11.400;2024-01-10T03:50:44;54.57;;;25.77;;
48006;SDS011;33771;48.180;11.400;2024-01-10T03:53:10;62.57;;;26.83;;
48006;SDS011;33771;48.180;11.400;2024-01-10T03:55:35;65.63;;;26.73;;
48006;SDS011;33771;48.180;11.400;2024-01-10T03:58:01;60.07;;;27.60;;
48006;SDS011;33771;48.180;11.400;2024-01-10T04:00:26;59.03;;;24.60;;
48006;SDS011;33771;48.180;11.400;2024-01-10T04:02:52;61.53;;;26.37;;
48006;SDS011;33771;48.180;11.400;2024-01-10T04:05:18;59.20;;;26.70;;
48006;SDS011;33771;48.180;11.400;2024-01-10T04:07:45;64.00;;;26.77;;
48006;SDS011;33771;48.180;11.400;2024-01-10T04:10:11;57.13;;;24.73;;
48006;SDS011;33771;48.180;11.400;2024-01-10T04:12:39;65.07;;;26.93;;
48006;SDS011;33771;48.180;11.400;2024-01-10T04:15:05;62.77;;;25.90;;
48006;SDS011;33771;48.180;11.400;2024-01-10T04:17:31;56.07;;;25.47;;
48006;SDS011;33771;48.180;11.400;2024-01-10T04:19:57;61.93;;;27.07;;
48006;SDS011;33771;48.180;11.400;2024-01-10T04:22:23;69.47;;;30.07;;
48006;SDS011;33771;48.180;11.400;2024-01-10T04:24:49;64.10;;;27.47;;
48006;SDS011;33771;48.180;11.400;2024-01-10T04:27:15;72.63;;;28.57;;
48006;SDS011;33771;48.180;11.400;2024-01-10T04:29:41;66.90;;;28.57;;
48006;SDS011;33771;48.180;11.400;2024-01-10T04:32:06;60.33;;;26.60;;
48006;SDS011;33771;48.180;11.400;2024-01-10T04:34:32;61.23;;;28.47;;
48006;SDS011;33771;48.180;11.400;2024-01-10T04:36:58;66.77;;;28.73;;
48006;SDS011;33771;48.180;11.400;2024-01-10T04:39:23;71.47;;;28.60;;
48006;SDS011;33771;48.180;11.400;2024-01-10T04:41:49;64.77;;;26.70;;
48006;SDS011;33771;48.180;11.400;2024-01-10T04:44:15;61.13;;;25.90;;
48006;SDS011;33771;48.180;11.400;2024-01-10T04:46:40;67.57;;;28.13;;
48006;SDS011;33771;48.180;11.400;2024-01-10T04:49:06;66.30;;;27.90;;
48006;SDS011;33771;48.180;11.400;2024-01-10T04:51:32;67.50;;;27.60;;
48006;SDS011;33771;48.180;11.400;2024-01-10T04:53:58;62.53;;;27.00;;
48006;SDS011;33771;48.180;11.400;2024-01-10T04:56:24;67.63;;;31.10;;
48006;SDS011;33771;48.180;11.400;2024-01-10T04:58:50;66.90;;;26.60;;
48006;SDS011;33771;48.180;11.400;2024-01-10T05:01:16;69.37;;;30.10;;
48006;SDS011;33771;48.180;11.400;2024-01-10T05:03:41;69.30;;;29.47;;
48006;SDS011;33771;48.180;11.400;2024-01-10T05:06:07;67.23;;;29.93;;
48006;SDS011;33771;48.180;11.400;2024-01-10T05:08:32;67.00;;;28.67;;
48006;SDS011;33771;48.180;11.400;2024-01-10T05:10:58;72.73;;;29.00;;
48006;SDS011;33771;48.180;11.400;2024-01-10T05:13:23;69.67;;;28.03;;
48006;SDS011;33771;48.180;11.400;2024-01-10T05:15:49;81.10;;;31.80;;
48006;SDS011;33771;48.180;11.400;2024-01-10T05:18:15;71.63;;;29.77;;
48006;SDS011;33771;48.180;11.400;2024-01-10T05:20:41;70.77;;;30.93;;
48006;SDS011;33771;48.180;11.400;2024-01-10T05:23:07;66.97;;;28.30;;
48006;SDS011;33771;48.180;11.400;2024-01-10T05:25:32;73.57;;;30.13;;
48006;SDS011;33771;48.180;11.400;2024-01-10T05:27:58;76.17;;;32.03;;
48006;SDS011;33771;48.180;11.400;2024-01-10T05:30:23;69.47;;;29.43;;
48006;SDS011;33771;48.180;11.400;2024-01-10T05:32:49;74.23;;;33.90;;
48006;SDS011;33771;48.180;11.400;2024-01-10T05:35:14;68.63;;;30.73;;
48006;SDS011;33771;48.180;11.400;2024-01-10T05:37:40;65.47;;;29.40;;
48006;SDS011;33771;48.180;11.400;2024-01-10T05:40:06;68.13;;;29.47;;
48006;SDS011;33771;48.180;11.400;2024-01-10T05:42:32;63.47;;;29.47;;
48006;SDS011;33771;48.180;11.400;2024-01-10T05:44:58;65.60;;;28.07;;
48006;SDS011;33771;48.180;11.400;2024-01-10T05:47:24;69.53;;;28.53;;
48006;SDS011;33771;48.180;11.400;2024-01-10T05:49:51;71.00;;;30.57;;
48006;SDS011;33771;48.180;11.400;2024-01-10T05:52:18;58.80;;;28.00;;
48006;SDS011;33771;48.180;11.400;2024-01-10T05:54:43;70.50;;;28.77;;
48006;SDS011;33771;48.180;11.400;2024-01-10T05:57:09;67.63;;;28.93;;
48006;SDS011;33771;48.180;11.400;2024-01-10T05:59:35;68.27;;;29.50;;
48006;SDS011;33771;48.180;11.400;2024-01-10T06:02:00;66.13;;;29.27;;
48006;SDS011;33771;48.180;11.400;2024-01-10T06:04:27;64.17;;;29.97;;
48006;SDS011;33771;48.180;11.400;2024-01-10T06:06:55;72.30;;;30.53;;
48006;SDS011;33771;48.180;11.400;2024-01-10T06:09:22;66.83;;;30.90;;
48006;SDS011;33771;48.180;11.400;2024-01-10T06:11:48;72.33;;;30.23;;
48006;SDS011;33771;48.180;11.400;2024-01-10T06:14:13;67.57;;;27.93;;
48006;SDS011;33771;48.180;11.400;2024-01-10T06:16:39;68.53;;;28.60;;
48006;SDS011;33771;48.180;11.400;2024-01-10T06:19:05;67.50;;;30.70;;
48006;SDS011;33771;48.180;11.400;2024-01-10T06:21:31;65.93;;;29.53;;
48006;SDS011;33771;48.180;11.400;2024-01-10T06:23:56;69.70;;;30.60;;
48006;SDS011;33771;48.180;11.400;2024-01-10T06:26:22;65.73;;;29.87;;
48006;SDS011;33771;48.180;11.400;2024-01-10T06:28:48;66.90;;;28.60;;
48006;SDS011;33771;48.180;11.400;2024-01-10T06:31:13;67.53;;;29.07;;
48006;SDS011;33771;48.180;11.400;2024-01-10T06:33:39;67.80;;;30.07;;
48006;SDS011;33771;48.180;11.400;2024-01-10T06:36:04;73.57;;;31.50;;
48006;SDS011;33771;48.180;11.400;2024-01-10T06:38:30;68.17;;;29.73;;
48006;SDS011;33771;48.180;11.400;2024-01-10T06:40:56;63.67;;;29.63;;
48006;SDS011;33771;48.180;11.400;2024-01-10T06:43:21;69.80;;;29.60;;
48006;SDS011;33771;48.180;11.400;2024-01-10T06:45:47;68.03;;;29.33;;
48006;SDS011;33771;48.180;11.400;2024-01-10T06:48:13;69.53;;;29.80;;
48006;SDS011;33771;48.180;11.400;2024-01-10T06:50:40;66.57;;;28.37;;
48006;SDS011;33771;48.180;11.400;2024-01-10T06:53:05;62.90;;;27.23;;
48006;SDS011;33771;48.180;11.400;2024-01-10T06:55:31;75.63;;;30.20;;
48006;SDS011;33771;48.180;11.400;2024-01-10T06:57:57;64.07;;;29.43;;
48006;SDS011;33771;48.180;11.400;2024-01-10T07:00:22;69.73;;;30.03;;
48006;SDS011;33771;48.180;11.400;2024-01-10T07:02:48;64.43;;;27.43;;
48006;SDS011;33771;48.180;11.400;2024-01-10T07:05:14;70.17;;;29.03;;
48006;SDS011;33771;48.180;11.400;2024-01-10T07:07:41;66.83;;;29.30;;
48006;SDS011;33771;48.180;11.400;2024-01-10T07:10:06;67.63;;;29.87;;
48006;SDS011;33771;48.180;11.400;2024-01-10T07:12:33;66.20;;;29.37;;
48006;SDS011;33771;48.180;11.400;2024-01-10T07:14:59;69.73;;;28.87;;
48006;SDS011;33771;48.180;11.400;2024-01-10T07:17:25;67.17;;;29.43;;
48006;SDS011;33771;48.180;11.400;2024-01-10T07:19:50;68.10;;;28.70;;
48006;SDS011;33771;48.180;11.400;2024-01-10T07:22:16;66.57;;;29.47;;
48006;SDS011;33771;48.180;11.400;2024-01-10T07:24:44;65.50;;;28.67;;
48006;SDS011;33771;48.180;11.400;2024-01-10T07:27:11;60.37;;;27.93;;
48006;SDS011;33771;48.180;11.400;2024-01-10T07:29:39;65.37;;;28.97;;
48006;SDS011;33771;48.180;11.400;2024-01-10T07:32:05;63.83;;;30.73;;
48006;SDS011;33771;48.180;11.400;2024-01-10T07:34:36;63.80;;;28.57;;
48006;SDS011;33771;48.180;11.400;2024-01-10T07:37:02;68.50;;;29.30;;
48006;SDS011;33771;48.180;11.400;2024-01-10T07:39:28;65.77;;;28.80;;
48006;SDS011;33771;48.180;11.400;2024-01-10T07:41:55;65.23;;;28.67;;
48006;SDS011;33771;48.180;11.400;2024-01-10T07:44:20;61.90;;;28.70;;
48006;SDS011;33771;48.180;11.400;2024-01-10T07:46:46;66.10;;;28.93;;
48006;SDS011;33771;48.180;11.400;2024-01-10T07:49:12;65.83;;;31.20;;
48006;SDS011;33771;48.180;11.400;2024-01-10T07:51:39;68.03;;;30.93;;
48006;SDS011;33771;48.180;11.400;2024-01-10T07:54:04;69.67;;;30.03;;
48006;SDS011;33771;48.180;11.400;2024-01-10T07:56:30;67.43;;;30.50;;
48006;SDS011;33771;48.180;11.400;2024-01-10T07:58:55;67.80;;;31.33;;
48006;SDS011;33771;48.180;11.400;2024-01-10T08:01:21;71.70;;;31.53;;
48006;SDS011;33771;48.180;11.400;2024-01-10T08:03:47;75.77;;;32.03;;
48006;SDS011;33771;48.180;11.400;2024-01-10T08:06:12;66.70;;;30.73;;
48006;SDS011;33771;48.180;11.400;2024-01-10T08:08:38;69.63;;;29.63;;
48006;SDS011;33771;48.180;11.400;2024-01-10T08:11:04;67.47;;;30.70;;
48006;SDS011;33771;48.180;11.400;2024-01-10T08:13:30;69.23;;;33.53;;
48006;SDS011;33771;48.180;11.400;2024-01-10T08:15:56;75.90;;;33.20;;
48006;SDS011;33771;48.180;11.400;2024-01-10T08:18:21;76.40;;;30.87;;
48006;SDS011;33771;48.180;11.400;2024-01-10T08:20:48;77.43;;;36.00;;
48006;SDS011;33771;48.180;11.400;2024-01-10T08:23:13;69.00;;;31.93;;
48006;SDS011;33771;48.180;11.400;2024-01-10T08:25:39;69.03;;;31.23;;
48006;SDS011;33771;48.180;11.400;2024-01-10T08:28:05;68.60;;;31.80;;
48006;SDS011;33771;48.180;11.400;2024-01-10T08:30:31;71.73;;;31.67;;
48006;SDS011;33771;48.180;11.400;2024-01-10T08:32:57;68.70;;;32.27;;
48006;SDS011;33771;48.180;11.400;2024-01-10T08:35:23;71.83;;;31.90;;
48006;SDS011;33771;48.180;11.400;2024-01-10T08:37:48;71.83;;;30.90;;
48006;SDS011;33771;48.180;11.400;2024-01-10T08:40:14;72.67;;;30.67;;
48006;SDS011;33771;48.180;11.400;2024-01-10T08:42:41;69.53;;;30.93;;
48006;SDS011;33771;48.180;11.400;2024-01-10T08:45:07;69.30;;;29.80;;
48006;SDS011;33771;48.180;11.400;2024-01-10T08:47:34;64.70;;;29.63;;
48006;SDS011;33771;48.180;11.400;2024-01-10T08:50:01;65.97;;;30.77;;
48006;SDS011;33771;48.180;11.400;2024-01-10T08:52:28;63.40;;;28.37;;
48006;SDS011;33771;48.180;11.400;2024-01-10T08:54:53;64.13;;;28.17;;
48006;SDS011;33771;48.180;11.400;2024-01-10T08:57:19;66.67;;;28.40;;
48006;SDS011;33771;48.180;11.400;2024-01-10T08:59:44;65.93;;;28.63;;
48006;SDS011;33771;48.180;11.400;2024-01-10T09:02:11;76.37;;;33.10;;
48006;SDS011;33771;48.180;11.400;2024-01-10T09:04:37;67.27;;;29.70;;
48006;SDS011;33771;48.180;11.400;2024-01-10T09:07:02;61.77;;;26.50;;
48006;SDS011;33771;48.180;11.400;2024-01-10T09:09:28;68.03;;;27.30;;
48006;SDS011;33771;48.180;11.400;2024-01-10T09:11:53;72.17;;;28.77;;
48006;SDS011;33771;48.180;11.400;2024-01-10T09:14:19;61.30;;;26.73;;
48006;SDS011;33771;48.180;11.400;2024-01-10T09:16:45;60.67;;;24.97;;
48006;SDS011;33771;48.180;11.400;2024-01-10T09:19:11;66.97;;;27.83;;
48006;SDS011;33771;48.180;11.400;2024-01-10T09:21:36;67.73;;;27.63;;
48006;SDS011;33771;48.180;11.400;2024-01-10T09:24:02;65.87;;;27.47;;
48006;SDS011;33771;48.180;11.400;2024-01-10T09:26:30;67.13;;;27.33;;
48006;SDS011;33771;48.180;11.400;2024-01-10T09:28:56;63.57;;;27.10;;
48006;SDS011;33771;48.180;11.400;2024-01-10T09:31:21;58.73;;;26.10;;
48006;SDS011;33771;48.180;11.400;2024-01-10T09:33:47;65.77;;;26.50;;
48006;SDS011;33771;48.180;11.400;2024-01-10T09:36:12;59.00;;;24.40;;
48006;SDS011;33771;48.180;11.400;2024-01-10T09:38:39;61.77;;;27.43;;
48006;SDS011;33771;48.180;11.400;2024-01-10T09:41:05;68.23;;;29.03;;
48006;SDS011;33771;48.180;11.400;2024-01-10T09:43:31;66.10;;;28.90;;
48006;SDS011;33771;48.180;11.400;2024-01-10T09:45:58;63.83;;;26.97;;
48006;SDS011;33771;48.180;11.400;2024-01-10T09:48:25;62.43;;;27.57;;
48006;SDS011;33771;48.180;11.400;2024-01-10T09:50:51;63.20;;;26.90;;
48006;SDS011;33771;48.180;11.400;2024-01-10T09:53:21;61.53;;;27.53;;
48006;SDS011;33771;48.180;11.400;2024-01-10T09:55:51;62.03;;;27.87;;
48006;SDS011;33771;48.180;11.400;2024-01-10T09:58:21;61.60;;;25.80;;
48006;SDS011;33771;48.180;11.400;2024-01-10T10:00:48;59.10;;;24.77;;
48006;SDS011;33771;48.180;11.400;2024-01-10T10:03:13;62.20;;;26.13;;
48006;SDS011;33771;48.180;11.400;2024-01-10T10:05:41;60.93;;;25.90;;
48006;SDS011;33771;48.180;11.400;2024-01-10T10:08:07;65.50;;;25.90;;
48006;SDS011;33771;48.180;11.400;2024-01-10T10:10:35;60.33;;;26.57;;
48006;SDS011;33771;48.180;11.400;2024-01-10T10:13:01;61.80;;;27.37;;
48006;SDS011;33771;48.180;11.400;2024-01-10T10:15:27;64.77;;;27.80;;
48006;SDS011;33771;48.180;11.400;2024-01-10T10:17:53;64.47;;;25.80;;
48006;SDS011;33771;48.180;11.400;2024-01-10T10:20:23;73.97;;;27.67;;
48006;SDS011;33771;48.180;11.400;2024-01-10T10:23:03;68.57;;;28.87;;
48006;SDS011;33771;48.180;11.400;2024-01-10T10:25:30;63.83;;;27.40;;
48006;SDS011;33771;48.180;11.400;2024-01-10T10:27:58;68.20;;;28.40;;
48006;SDS011;33771;48.180;11.400;2024-01-10T10:30:23;64.03;;;27.13;;
48006;SDS011;33771;48.180;11.400;2024-01-10T10:32:49;59.77;;;27.73;;
48006;SDS011;33771;48.180;11.400;2024-01-10T10:35:15;65.57;;;27.37;;
48006;SDS011;33771;48.180;11.400;2024-01-10T10:37:43;58.93;;;27.13;;
48006;SDS011;33771;48.180;11.400;2024-01-10T10:40:08;63.30;;;28.13;;
48006;SDS011;33771;48.180;11.400;2024-01-10T10:42:34;66.13;;;28.17;;
48006;SDS011;33771;48.180;11.400;2024-01-10T10:45:04;61.43;;;26.43;;
48006;SDS011;33771;48.180;11.400;2024-01-10T10:47:32;64.57;;;27.33;;
48006;SDS011;33771;48.180;11.400;2024-01-10T10:50:01;66.83;;;28.10;;
48006;SDS011;33771;48.180;11.400;2024-01-10T10:52:28;69.47;;;28.97;;
48006;SDS011;33771;48.180;11.400;2024-01-10T10:54:55;62.90;;;29.13;;
48006;SDS011;33771;48.180;11.400;2024-01-10T10:57:22;68.10;;;27.00;;
48006;SDS011;33771;48.180;11.400;2024-01-10T10:59:53;68.43;;;28.60;;
48006;SDS011;33771;48.180;11.400;2024-01-10T11:02:20;70.57;;;28.00;;
48006;SDS011;33771;48.180;11.400;2024-01-10T11:04:49;66.53;;;29.80;;
48006;SDS011;33771;48.180;11.400;2024-01-10T11:07:18;63.27;;;27.03;;
48006;SDS011;33771;48.180;11.400;2024-01-10T11:09:45;66.07;;;27.73;;
48006;SDS011;33771;48.180;11.400;2024-01-10T11:15:40;67.18;;;27.70;;
48006;SDS011;33771;48.180;11.400;2024-01-10T11:24:01;65.10;;;28.63;;
48006;SDS011;33771;48.180;11.400;2024-01-10T11:26:29;65.97;;;27.73;;
48006;SDS011;33771;48.180;11.400;2024-01-10T11:28:56;66.43;;;27.90;;
48006;SDS011;33771;48.180;11.400;2024-01-10T11:31:29;60.67;;;25.67;;
48006;SDS011;33771;48.180;11.400;2024-01-10T11:33:56;65.07;;;29.07;;
48006;SDS011;33771;48.180;11.400;2024-01-10T11:36:22;74.30;;;31.33;;
48006;SDS011;33771;48.180;11.400;2024-01-10T11:38:54;73.80;;;31.63;;
48006;SDS011;33771;48.180;11.400;2024-01-10T11:41:30;69.87;;;28.13;;
48006;SDS011;33771;48.180;11.400;2024-01-10T11:46:39;66.67;;;29.13;;
48006;SDS011;33771;48.180;11.400;2024-01-10T11:49:10;48.83;;;22.98;;
48006;SDS011;33771;48.180;11.400;2024-01-10T11:51:40;65.60;;;25.73;;
48006;SDS011;33771;48.180;11.400;2024-01-10T11:54:07;69.50;;;28.73;;
48006;SDS011;33771;48.180;11.400;2024-01-10T11:56:40;64.03;;;28.13;;
48006;SDS011;33771;48.180;11.400;2024-01-10T11:59:11;57.03;;;25.83;;
48006;SDS011;33771;48.180;11.400;2024-01-10T12:01:38;62.60;;;27.27;;
48006;SDS011;33771;48.180;11.400;2024-01-10T12:04:07;60.43;;;27.57;;
48006;SDS011;33771;48.180;11.400;2024-01-10T12:06:34;65.07;;;27.90;;
48006;SDS011;33771;48.180;11.400;2024-01-10T12:09:01;59.00;;;26.10;;
48006;SDS011;33771;48.180;11.400;2024-01-10T12:11:33;60.30;;;27.23;;
48006;SDS011;33771;48.180;11.400;2024-01-10T12:14:04;62.80;;;26.33;;
48006;SDS011;33771;48.180;11.400;2024-01-10T12:16:29;68.07;;;27.87;;
48006;SDS011;33771;48.180;11.400;2024-01-10T12:18:55;68.57;;;27.87;;
48006;SDS011;33771;48.180;11.400;2024-01-10T12:21:20;61.93;;;28.47;;
48006;SDS011;33771;48.180;11.400;2024-01-10T12:23:46;64.73;;;28.57;;
48006;SDS011;33771;48.180;11.400;2024-01-10T12:26:13;67.77;;;29.93;;
48006;SDS011;33771;48.180;11.400;2024-01-10T12:28:39;58.13;;;26.17;;
48006;SDS011;33771;48.180;11.400;2024-01-10T12:31:05;69.77;;;29.53;;
48006;SDS011;33771;48.180;11.400;2024-01-10T12:33:37;64.20;;;28.10;;
48006;SDS011;33771;48.180;11.400;2024-01-10T12:36:08;59.47;;;26.93;;
48006;SDS011;33771;48.180;11.400;2024-01-10T12:38:35;64.87;;;28.67;;
48006;SDS011;33771;48.180;11.400;2024-01-10T12:41:01;67.37;;;28.13;;
48006;SDS011;33771;48.180;11.400;2024-01-10T12:43:29;71.57;;;30.10;;
48006;SDS011;33771;48.180;11.400;2024-01-10T12:46:04;63.00;;;29.00;;
48006;SDS011;33771;48.180;11.400;2024-01-10T12:48:40;66.33;;;29.23;;
48006;SDS011;33771;48.180;11.400;2024-01-10T12:51:07;60.93;;;27.33;;
48006;SDS011;33771;48.180;11.400;2024-01-10T12:53:37;67.37;;;28.60;;
48006;SDS011;33771;48.180;11.400;2024-01-10T12:56:06;68.53;;;28.67;;
48006;SDS011;33771;48.180;11.400;2024-01-10T12:58:33;64.67;;;29.90;;
48006;SDS011;33771;48.180;11.400;2024-01-10T13:01:01;66.97;;;28.20;;
48006;SDS011;33771;48.180;11.400;2024-01-10T13:03:30;68.00;;;27.97;;
48006;SDS011;33771;48.180;11.400;2024-01-10T13:05:55;70.43;;;29.30;;
48006;SDS011;33771;48.180;11.400;2024-01-10T13:08:21;60.40;;;26.70;;
48006;SDS011;33771;48.180;11.400;2024-01-10T13:10:47;64.07;;;27.13;;
48006;SDS011;33771;48.180;11.400;2024-01-10T13:13:12;68.47;;;27.40;;
48006;SDS011;33771;48.180;11.400;2024-01-10T13:15:39;74.20;;;27.63;;
48006;SDS011;33771;48.180;11.400;2024-01-10T13:18:04;65.17;;;29.83;;
48006;SDS011;33771;48.180;11.400;2024-01-10T13:20:31;72.07;;;29.70;;
48006;SDS011;33771;48.180;11.400;2024-01-10T13:22:57;75.77;;;34.33;;
48006;SDS011;33771;48.180;11.400;2024-01-10T13:25:23;110.57;;;42.90;;
48006;SDS011;33771;48.180;11.400;2024-01-10T13:27:51;69.53;;;29.17;;
48006;SDS011;33771;48.180;11.400;2024-01-10T13:30:18;65.53;;;28.57;;
48006;SDS011;33771;48.180;11.400;2024-01-10T13:32:44;75.13;;;30.77;;
48006;SDS011;33771;48.180;11.400;2024-01-10T13:35:10;71.30;;;31.83;;
48006;SDS011;33771;48.180;11.400;2024-01-10T13:37:36;79.97;;;31.90;;
48006;SDS011;33771;48.180;11.400;2024-01-10T13:40:02;62.70;;;28.73;;
48006;SDS011;33771;48.180;11.400;2024-01-10T13:42:30;65.17;;;28.83;;
48006;SDS011;33771;48.180;11.400;2024-01-10T13:44:56;78.30;;;30.97;;
48006;SDS011;33771;48.180;11.400;2024-01-10T13:47:21;72.47;;;29.33;;
48006;SDS011;33771;48.180;11.400;2024-01-10T13:49:47;66.33;;;28.60;;
48006;SDS011;33771;48.180;11.400;2024-01-10T13:52:13;67.83;;;29.90;;
48006;SDS011;33771;48.180;11.400;2024-01-10T13:54:38;75.13;;;30.23;;
48006;SDS011;33771;48.180;11.400;2024-01-10T13:57:04;74.27;;;29.63;;
48006;SDS011;33771;48.180;11.400;2024-01-10T13:59:29;71.87;;;30.20;;
48006;SDS011;33771;48.180;11.400;2024-01-10T14:01:55;70.33;;;30.27;;
48006;SDS011;33771;48.180;11.400;2024-01-10T14:04:20;70.07;;;29.63;;
48006;SDS011;33771;48.180;11.400;2024-01-10T14:06:47;69.20;;;29.30;;
48006;SDS011;33771;48.180;11.400;2024-01-10T14:09:13;71.13;;;29.67;;
48006;SDS011;33771;48.180;11.400;2024-01-10T14:11:39;75.70;;;29.33;;
48006;SDS011;33771;48.180;11.400;2024-01-10T14:14:04;69.03;;;29.73;;
48006;SDS011;33771;48.180;11.400;2024-01-10T14:16:30;69.57;;;30.57;;